createdAt,value
2022-10-17T00:01:30.519Z,14.39
2022-10-17T00:06:36.871Z,14.40
2022-10-17T00:11:43.071Z,14.38
2022-10-17T00:16:46.729Z,14.29
2022-10-17T00:21:50.944Z,14.32
2022-10-17T00:26:55.693Z,14.25
2022-10-17T00:32:01.624Z,14.16
2022-10-17T00:37:05.035Z,14.09
2022-10-17T00:42:14.347Z,14.14
2022-10-17T00:47:23.185Z,14.15
2022-10-17T00:52:33.091Z,14.19
2022-10-17T00:57:37.779Z,14.15
2022-10-17T01:02:42.683Z,14.10
2022-10-17T01:07:50.018Z,14.08
2022-10-17T01:13:07.597Z,14.00
2022-10-17T01:18:20.915Z,13.89
2022-10-17T01:23:39.218Z,13.76
2022-10-17T01:29:01.712Z,13.67
2022-10-17T01:34:23.816Z,13.57
2022-10-17T01:40:04.863Z,13.51
2022-10-17T01:45:19.953Z,13.56
2022-10-17T01:50:36.741Z,13.55
2022-10-17T01:55:42.637Z,13.52
2022-10-17T02:00:49.946Z,13.43
2022-10-17T02:05:54.377Z,13.35
2022-10-17T02:11:11.949Z,13.31
2022-10-17T02:16:48.037Z,13.31
2022-10-17T02:22:33.668Z,13.28
2022-10-17T02:27:48.020Z,13.31
2022-10-17T02:33:04.998Z,13.26
2022-10-17T02:38:13.597Z,13.20
2022-10-17T02:43:18.417Z,13.16
2022-10-17T02:48:43.395Z,13.08
2022-10-17T02:54:01.922Z,13.08
2022-10-17T02:59:10.367Z,13.13
2022-10-17T03:04:15.357Z,13.14
2022-10-17T03:09:19.873Z,13.09
2022-10-17T03:14:24.461Z,12.96
2022-10-17T03:19:28.976Z,12.92
2022-10-17T03:24:32.418Z,12.87
2022-10-17T03:29:36.711Z,12.83
2022-10-17T03:34:41.554Z,12.78
2022-10-17T03:39:46.045Z,12.69
2022-10-17T03:44:50.435Z,12.59
2022-10-17T03:49:54.042Z,12.51
2022-10-17T03:54:58.474Z,12.46
2022-10-17T04:00:03.074Z,12.44
2022-10-17T04:05:07.797Z,12.30
2022-10-17T04:10:11.544Z,12.27
2022-10-17T04:15:15.774Z,12.34
2022-10-17T04:20:20.576Z,12.48
2022-10-17T04:25:23.877Z,12.58
2022-10-17T04:30:27.226Z,12.45
2022-10-17T04:35:30.342Z,12.32
2022-10-17T04:40:34.346Z,12.16
2022-10-17T04:45:37.711Z,12.05
2022-10-17T04:50:41.810Z,11.99
2022-10-17T04:55:45.504Z,11.97
2022-10-17T05:00:49.677Z,12.00
2022-10-17T05:05:53.278Z,12.02
2022-10-17T05:10:56.636Z,12.03
2022-10-17T05:16:01.134Z,12.11
2022-10-17T05:21:05.706Z,12.24
2022-10-17T05:26:10.335Z,12.30
2022-10-17T05:31:14.998Z,12.27
2022-10-17T05:36:19.083Z,12.20
2022-10-17T05:41:22.672Z,12.22
2022-10-17T05:46:26.333Z,12.22
2022-10-17T05:51:30.043Z,12.09
2022-10-17T05:56:35.721Z,11.98
2022-10-17T06:01:40.854Z,12.01
2022-10-17T06:06:45.871Z,12.11
2022-10-17T06:11:50.553Z,12.28
2022-10-17T06:16:54.225Z,12.49
2022-10-17T06:21:57.904Z,12.71
2022-10-17T06:27:02.035Z,12.92
2022-10-17T06:32:06.909Z,13.17
2022-10-17T06:37:12.136Z,13.51
2022-10-17T06:42:16.519Z,13.84
2022-10-17T06:47:21.496Z,14.22
2022-10-17T06:52:26.528Z,14.59
2022-10-17T06:57:30.649Z,15.15
2022-10-17T07:02:35.605Z,15.94
2022-10-17T07:07:43.165Z,16.69
2022-10-17T07:12:49.683Z,16.93
2022-10-17T07:17:54.821Z,17.14
2022-10-17T07:22:59.267Z,17.50
2022-10-17T07:28:03.908Z,17.77
2022-10-17T07:33:08.269Z,17.97
2022-10-17T07:38:12.966Z,18.07
2022-10-17T07:43:17.603Z,17.98
2022-10-17T07:48:23.149Z,18.04
2022-10-17T07:53:27.985Z,18.21
2022-10-17T07:58:33.494Z,18.30
2022-10-17T08:03:38.657Z,18.35
2022-10-17T08:08:45.187Z,18.50
2022-10-17T08:13:49.882Z,18.64
2022-10-17T08:18:54.996Z,18.80
2022-10-17T08:23:59.780Z,19.04
2022-10-17T08:29:03.759Z,19.24
2022-10-17T08:34:08.474Z,19.42
2022-10-17T08:39:13.240Z,19.40
2022-10-17T08:44:48.798Z,19.35
2022-10-17T08:49:56.652Z,19.40
2022-10-17T08:55:01.990Z,19.68
2022-10-17T09:00:17.951Z,19.77
2022-10-17T09:05:50.069Z,19.81
2022-10-17T09:11:32.334Z,20.02
2022-10-17T09:17:09.148Z,20.23
2022-10-17T09:22:26.259Z,20.41
2022-10-17T09:27:50.739Z,20.57
2022-10-17T09:32:55.631Z,20.83
2022-10-17T09:38:00.093Z,20.97
2022-10-17T09:43:08.429Z,21.22
2022-10-17T09:48:31.670Z,21.39
2022-10-17T09:53:40.133Z,21.82
2022-10-17T09:58:57.946Z,21.97
2022-10-17T10:04:13.548Z,22.10
2022-10-17T10:09:25.489Z,22.35
2022-10-17T10:14:42.722Z,22.46
2022-10-17T10:19:51.818Z,22.51
2022-10-17T10:25:19.258Z,22.53
2022-10-17T10:30:29.170Z,22.59
2022-10-17T10:35:36.275Z,22.57
2022-10-17T10:40:47.964Z,22.65
2022-10-17T10:45:53.988Z,22.70
2022-10-17T10:51:11.295Z,22.91
2022-10-17T10:56:15.845Z,23.04
2022-10-17T11:01:39.029Z,23.08
2022-10-17T11:06:46.572Z,23.22
2022-10-17T11:12:20.280Z,23.42
2022-10-17T11:17:44.294Z,23.63
2022-10-17T11:22:59.374Z,23.85
2022-10-17T11:28:11.669Z,23.91
2022-10-17T11:33:24.532Z,23.98
2022-10-17T11:38:42.641Z,23.96
2022-10-17T11:43:53.095Z,23.82
2022-10-17T11:49:38.419Z,23.72
2022-10-17T11:55:02.190Z,23.81
2022-10-17T12:00:25.152Z,23.84
2022-10-17T12:06:07.808Z,23.94
2022-10-17T12:11:30.003Z,23.99
2022-10-17T12:22:24.363Z,24.07
2022-10-17T12:27:50.477Z,23.97
2022-10-17T12:33:23.228Z,23.90
2022-10-17T12:38:28.184Z,23.91
2022-10-17T12:43:33.224Z,23.81
2022-10-17T12:48:37.398Z,23.65
2022-10-17T12:53:51.062Z,23.41
2022-10-17T12:58:55.532Z,23.18
2022-10-17T13:04:06.697Z,23.14
2022-10-17T13:09:34.699Z,23.16
2022-10-17T13:14:43.460Z,23.09
2022-10-17T13:19:53.568Z,23.02
2022-10-17T13:25:19.111Z,23.09
2022-10-17T13:30:32.802Z,23.19
2022-10-17T13:35:59.459Z,23.16
2022-10-17T13:41:30.434Z,23.09
2022-10-17T13:46:38.491Z,22.92
2022-10-17T13:51:48.339Z,22.74
2022-10-17T13:56:56.852Z,22.54
2022-10-17T14:02:02.404Z,22.37
2022-10-17T14:07:08.010Z,22.18
2022-10-17T14:12:13.599Z,22.14
2022-10-17T14:17:29.005Z,22.17
2022-10-17T14:22:36.269Z,22.17
2022-10-17T14:28:15.070Z,22.26
2022-10-17T14:33:30.878Z,22.35
2022-10-17T14:38:36.660Z,22.29
2022-10-17T14:43:41.164Z,22.25
2022-10-17T14:48:48.548Z,22.20
2022-10-17T14:54:05.815Z,22.13
2022-10-17T14:59:21.561Z,22.00
2022-10-17T15:04:33.476Z,21.81
2022-10-17T15:09:36.854Z,21.63
2022-10-17T15:14:40.679Z,21.42
2022-10-17T15:19:45.129Z,21.18
2022-10-17T15:24:49.494Z,21.02
2022-10-17T15:29:54.194Z,20.88
2022-10-17T15:34:57.819Z,20.70
2022-10-17T15:40:01.764Z,20.46
2022-10-17T15:45:06.216Z,20.21
2022-10-17T15:50:14.983Z,20.01
2022-10-17T15:55:19.516Z,19.83
2022-10-17T16:00:24.978Z,19.66
2022-10-17T16:05:29.451Z,19.51
2022-10-17T16:10:33.771Z,19.37
2022-10-17T16:15:36.918Z,19.17
2022-10-17T16:20:40.189Z,18.97
2022-10-17T16:25:44.101Z,18.80
2022-10-17T16:30:50.026Z,18.63
2022-10-17T16:35:55.368Z,18.55
2022-10-17T16:41:00.136Z,18.47
2022-10-17T16:46:04.973Z,18.38
2022-10-17T16:51:08.392Z,18.32
2022-10-17T16:56:16.044Z,18.21
2022-10-17T17:01:24.357Z,18.08
2022-10-17T17:06:30.036Z,17.95
2022-10-17T17:11:38.159Z,17.86
2022-10-17T17:16:44.186Z,17.77
2022-10-17T17:21:51.620Z,17.72
2022-10-17T17:26:57.887Z,17.64
2022-10-17T17:32:02.366Z,17.62
2022-10-17T17:37:07.408Z,17.59
2022-10-17T17:42:12.068Z,17.56
2022-10-17T17:47:15.822Z,17.48
2022-10-17T17:52:20.399Z,17.37
2022-10-17T17:57:25.534Z,17.29
2022-10-17T18:02:33.093Z,17.22
2022-10-17T18:07:39.144Z,17.16
2022-10-17T18:12:44.965Z,17.09
2022-10-17T18:17:56.059Z,17.04
2022-10-17T18:23:04.081Z,17.02
2022-10-17T18:28:09.644Z,16.95
2022-10-17T18:33:14.867Z,16.83
2022-10-17T18:38:18.875Z,16.78
2022-10-17T18:43:22.435Z,16.70
2022-10-17T18:48:27.099Z,16.63
2022-10-17T18:53:31.806Z,16.51
2022-10-17T18:58:37.471Z,16.40
2022-10-17T19:03:42.194Z,16.32
2022-10-17T19:08:48.254Z,16.27
2022-10-17T19:13:53.259Z,16.21
2022-10-17T19:19:03.847Z,16.13
2022-10-17T19:24:11.563Z,16.08
2022-10-17T19:29:16.899Z,16.06
2022-10-17T19:34:20.870Z,16.07
2022-10-17T19:39:27.013Z,16.07
2022-10-17T19:44:30.884Z,16.06
2022-10-17T19:49:34.497Z,16.06
2022-10-17T19:54:39.371Z,16.08
2022-10-17T19:59:43.026Z,16.08
2022-10-17T20:04:54.702Z,16.10
2022-10-17T20:10:03.820Z,16.11
2022-10-17T20:15:07.841Z,16.06
2022-10-17T20:20:11.552Z,16.06
2022-10-17T20:25:15.261Z,16.06
2022-10-17T20:30:18.577Z,16.04
2022-10-17T20:35:22.999Z,16.04
2022-10-17T20:40:41.513Z,16.01
2022-10-17T20:45:51.117Z,15.97
2022-10-17T20:50:55.935Z,15.95
2022-10-17T20:56:08.173Z,15.92
2022-10-17T21:01:11.528Z,15.89
2022-10-17T21:06:17.321Z,15.83
2022-10-17T21:11:24.093Z,15.78
2022-10-17T21:16:29.774Z,15.77
2022-10-17T21:21:36.336Z,15.73
2022-10-17T21:26:42.577Z,15.70
2022-10-17T21:31:46.985Z,15.66
2022-10-17T21:36:52.111Z,15.62
2022-10-17T21:41:56.151Z,15.59
2022-10-17T21:47:00.446Z,15.55
2022-10-17T21:52:07.903Z,15.52
2022-10-17T21:57:12.163Z,15.48
2022-10-17T22:02:16.897Z,15.43
2022-10-17T22:07:21.266Z,15.38
2022-10-17T22:12:26.418Z,15.37
2022-10-17T22:17:30.770Z,15.34
2022-10-17T22:22:35.586Z,15.25
2022-10-17T22:27:40.260Z,15.19
2022-10-17T22:32:44.170Z,15.11
2022-10-17T22:37:47.703Z,15.04
2022-10-17T22:42:51.733Z,14.97
2022-10-17T22:47:55.496Z,14.87
2022-10-17T22:52:59.837Z,14.79
2022-10-17T22:58:04.690Z,14.76
2022-10-17T23:03:09.016Z,14.65
2022-10-17T23:08:14.470Z,14.48
2022-10-17T23:13:19.216Z,14.39
2022-10-17T23:18:24.634Z,14.33
2022-10-17T23:23:28.620Z,14.17
2022-10-17T23:28:36.247Z,14.08
2022-10-17T23:33:41.858Z,14.01
2022-10-17T23:38:47.203Z,13.90
2022-10-17T23:43:51.920Z,13.69
2022-10-17T23:48:56.654Z,13.56
2022-10-17T23:54:00.519Z,13.50
2022-10-17T23:59:04.561Z,13.44
